createdAt,value
2018-11-23T00:04:13.105Z,21.73
2018-11-23T00:09:15.510Z,19.00
2018-11-23T00:14:18.021Z,20.20
2018-11-23T00:19:20.430Z,20.48
2018-11-23T00:24:23.186Z,19.17
2018-11-23T00:29:25.568Z,19.27
2018-11-23T00:34:28.067Z,20.37
2018-11-23T00:39:30.444Z,20.32
2018-11-23T00:44:33.000Z,19.75
2018-11-23T00:49:35.515Z,19.23
2018-11-23T00:54:37.908Z,20.72
2018-11-23T00:59:40.305Z,20.37
2018-11-23T01:04:42.785Z,20.75
2018-11-23T01:09:45.148Z,20.77
2018-11-23T01:14:47.612Z,20.40
2018-11-23T01:19:50.055Z,19.82
2018-11-23T01:24:52.535Z,21.10
2018-11-23T01:29:54.992Z,21.97
2018-11-23T01:34:57.370Z,21.93
2018-11-23T01:40:00.064Z,20.10
2018-11-23T01:45:02.496Z,20.92
2018-11-23T01:50:09.564Z,19.57
2018-11-23T01:55:12.831Z,20.25
2018-11-23T02:00:23.350Z,20.88
2018-11-23T02:05:25.748Z,20.23
2018-11-23T02:10:28.259Z,20.30
2018-11-23T02:15:30.573Z,22.25
2018-11-23T02:20:33.555Z,20.12
2018-11-23T02:25:36.030Z,21.52
2018-11-23T02:30:38.513Z,20.90
2018-11-23T02:35:40.935Z,21.00
2018-11-23T02:40:43.854Z,21.55
2018-11-23T02:45:46.330Z,20.82
2018-11-23T02:50:48.747Z,20.92
2018-11-23T02:55:51.307Z,22.55
2018-11-23T03:00:53.880Z,20.20
2018-11-23T03:05:56.300Z,22.07
2018-11-23T03:10:58.842Z,21.95
2018-11-23T03:16:01.228Z,22.10
2018-11-23T03:21:03.763Z,21.80
2018-11-23T03:26:07.558Z,22.52
2018-11-23T03:36:25.899Z,21.23
2018-11-23T03:41:28.446Z,21.60
2018-11-23T03:46:31.744Z,22.58
2018-11-23T03:51:34.261Z,21.17
2018-11-23T03:56:37.507Z,22.22
2018-11-23T04:01:39.999Z,23.02
2018-11-23T04:06:42.558Z,21.80
2018-11-23T04:11:45.117Z,23.87
2018-11-23T04:16:47.478Z,23.45
2018-11-23T04:21:50.359Z,23.83
2018-11-23T04:26:52.952Z,24.50
2018-11-23T04:32:03.314Z,23.25
2018-11-23T04:37:05.817Z,23.22
2018-11-23T04:47:21.627Z,23.75
2018-11-23T04:52:24.398Z,22.17
2018-11-23T04:57:27.201Z,23.30
2018-11-23T05:02:29.908Z,23.30
2018-11-23T05:07:32.615Z,23.30
2018-11-23T05:12:35.214Z,22.20
2018-11-23T05:17:37.674Z,23.67
2018-11-23T05:22:41.365Z,23.75
2018-11-23T05:27:43.759Z,23.73
2018-11-23T05:32:46.265Z,24.40
2018-11-23T05:37:48.673Z,22.13
2018-11-23T05:42:52.470Z,22.27
2018-11-23T05:47:54.932Z,21.95
2018-11-23T05:52:57.422Z,23.00
2018-11-23T05:58:00.313Z,20.92
2018-11-23T06:03:02.802Z,21.97
2018-11-23T06:08:05.368Z,21.90
2018-11-23T06:13:07.922Z,25.50
2018-11-23T06:18:10.638Z,22.42
2018-11-23T06:23:13.115Z,23.92
2018-11-23T06:28:15.550Z,22.25
2018-11-23T06:33:35.871Z,23.07
2018-11-23T06:38:38.404Z,24.77
2018-11-23T06:43:41.674Z,27.95
2018-11-23T06:48:44.104Z,35.92
2018-11-23T06:53:46.661Z,39.75
2018-11-23T06:58:50.061Z,40.73
2018-11-23T07:03:52.732Z,36.70
2018-11-23T07:08:55.209Z,35.23
2018-11-23T07:14:03.763Z,33.02
2018-11-23T07:19:00.179Z,31.20
2018-11-23T07:24:02.701Z,29.95
2018-11-23T07:29:06.774Z,27.37
2018-11-23T07:34:09.217Z,27.90
2018-11-23T07:39:23.097Z,24.67
2018-11-23T07:44:25.476Z,25.12
2018-11-23T07:49:27.874Z,24.45
2018-11-23T07:54:30.253Z,25.00
2018-11-23T07:59:32.721Z,25.50
2018-11-23T08:04:35.808Z,24.60
2018-11-23T08:09:38.849Z,25.20
2018-11-23T08:14:41.452Z,25.10
2018-11-23T08:19:47.416Z,25.37
2018-11-23T08:24:46.463Z,25.65
2018-11-23T08:29:48.809Z,25.37
2018-11-23T08:34:51.381Z,25.77
2018-11-23T08:39:53.841Z,25.48
2018-11-23T08:44:56.280Z,27.60
2018-11-23T08:49:58.705Z,25.27
2018-11-23T08:55:01.208Z,25.68
2018-11-23T09:00:06.275Z,25.52
2018-11-23T09:05:08.816Z,25.20
2018-11-23T09:10:14.425Z,26.55
2018-11-23T09:15:17.568Z,22.77
2018-11-23T09:20:19.604Z,25.72
2018-11-23T09:25:22.921Z,24.50
2018-11-23T09:30:26.143Z,24.95
2018-11-23T09:35:28.871Z,24.92
2018-11-23T09:40:31.331Z,25.65
2018-11-23T09:45:34.288Z,24.85
2018-11-23T09:50:36.795Z,25.08
2018-11-23T09:55:39.251Z,26.70
2018-11-23T10:00:41.713Z,25.30
2018-11-23T10:05:44.145Z,24.72
2018-11-23T10:10:46.529Z,25.15
2018-11-23T10:15:49.384Z,25.60
2018-11-23T10:20:51.876Z,26.85
2018-11-23T10:25:54.453Z,27.02
2018-11-23T10:30:56.902Z,25.68
2018-11-23T10:35:59.523Z,24.47
2018-11-23T10:41:02.111Z,24.82
2018-11-23T10:46:04.599Z,25.97
2018-11-23T10:51:07.059Z,24.85
2018-11-23T10:56:09.470Z,23.07
2018-11-23T11:01:17.671Z,23.73
2018-11-23T11:06:25.625Z,21.27
2018-11-23T11:11:28.199Z,23.07
2018-11-23T11:16:31.079Z,24.77
2018-11-23T11:21:33.969Z,22.77
2018-11-23T11:26:36.402Z,22.05
2018-11-23T11:31:38.858Z,22.13
2018-11-23T11:36:41.249Z,21.82
2018-11-23T11:41:43.639Z,22.30
2018-11-23T11:46:46.054Z,22.30
2018-11-23T11:51:48.670Z,21.55
2018-11-23T11:56:51.356Z,20.40
2018-11-23T12:01:53.829Z,20.30
2018-11-23T12:06:56.888Z,17.62
2018-11-23T12:11:59.433Z,18.60
2018-11-23T12:17:02.005Z,19.12
2018-11-23T12:22:04.712Z,19.82
2018-11-23T12:27:07.043Z,20.52
2018-11-23T12:32:09.483Z,18.80
2018-11-23T12:37:11.875Z,19.35
2018-11-23T12:42:14.388Z,15.80
2018-11-23T12:47:16.784Z,18.73
2018-11-23T12:52:19.144Z,18.27
2018-11-23T12:57:22.574Z,16.25
2018-11-23T13:02:25.238Z,17.23
2018-11-23T13:07:27.753Z,18.12
2018-11-23T13:12:30.201Z,16.52
2018-11-23T13:17:32.659Z,15.38
2018-11-23T13:22:35.480Z,16.20
2018-11-23T13:27:38.457Z,16.82
2018-11-23T13:32:41.781Z,15.43
2018-11-23T13:37:44.484Z,15.13
2018-11-23T13:42:47.386Z,15.10
2018-11-23T13:47:49.875Z,14.93
2018-11-23T13:52:54.073Z,14.65
2018-11-23T13:57:56.572Z,13.90
2018-11-23T14:02:59.089Z,12.88
2018-11-23T14:08:02.783Z,12.45
2018-11-23T14:13:11.332Z,12.03
2018-11-23T14:18:07.802Z,12.37
2018-11-23T14:23:10.271Z,11.95
2018-11-23T14:28:12.757Z,12.37
2018-11-23T14:33:15.251Z,11.95
2018-11-23T14:38:17.639Z,11.08
2018-11-23T14:43:20.091Z,11.55
2018-11-23T14:48:22.474Z,10.88
2018-11-23T14:53:24.933Z,12.37
2018-11-23T14:58:27.378Z,12.82
2018-11-23T15:03:29.816Z,13.45
2018-11-23T15:08:32.222Z,11.75
2018-11-23T15:13:34.768Z,12.30
2018-11-23T15:18:37.211Z,13.98
2018-11-23T15:23:39.719Z,14.40
2018-11-23T15:28:42.573Z,13.80
2018-11-23T15:33:45.092Z,14.18
2018-11-23T15:38:47.528Z,14.38
2018-11-23T15:43:50.333Z,13.90
2018-11-23T15:48:52.753Z,20.35
2018-11-23T15:53:55.730Z,14.50
2018-11-23T15:59:04.428Z,13.83
2018-11-23T16:04:07.014Z,13.95
2018-11-23T16:09:11.616Z,15.03
2018-11-23T16:14:14.086Z,14.00
2018-11-23T16:19:16.999Z,14.13
2018-11-23T16:24:19.565Z,14.50
2018-11-23T16:29:22.149Z,15.72
2018-11-23T16:34:24.659Z,14.58
2018-11-23T16:39:27.120Z,13.58
2018-11-23T16:44:29.489Z,13.32
2018-11-23T16:49:31.903Z,13.88
2018-11-23T16:54:35.777Z,14.25
2018-11-23T16:59:38.549Z,14.15
2018-11-23T17:04:40.905Z,14.33
2018-11-23T17:09:44.179Z,16.25
2018-11-23T17:14:45.764Z,15.63
2018-11-23T17:19:48.151Z,15.28
2018-11-23T17:24:50.739Z,14.43
2018-11-23T17:29:53.742Z,15.58
2018-11-23T17:34:56.454Z,16.27
2018-11-23T17:39:58.938Z,15.38
2018-11-23T17:45:01.451Z,13.85
2018-11-23T17:50:05.728Z,16.50
2018-11-23T17:55:10.043Z,15.00
2018-11-23T18:00:18.697Z,16.30
2018-11-23T18:05:21.980Z,14.65
2018-11-23T18:10:26.750Z,16.60
2018-11-23T18:15:30.436Z,13.88
2018-11-23T18:20:34.809Z,14.50
2018-11-23T18:25:38.916Z,14.25
2018-11-23T18:30:41.393Z,14.03
2018-11-23T18:35:43.882Z,14.55
2018-11-23T18:40:46.342Z,15.23
2018-11-23T18:45:48.781Z,18.27
2018-11-23T18:50:51.441Z,17.00
2018-11-23T18:55:54.485Z,18.90
2018-11-23T19:00:56.975Z,18.87
2018-11-23T19:05:59.758Z,17.52
2018-11-23T19:11:02.306Z,18.37
2018-11-23T19:16:04.965Z,17.40
2018-11-23T19:21:07.516Z,16.15
2018-11-23T19:26:10.205Z,15.88
2018-11-23T19:31:12.839Z,15.75
2018-11-23T19:36:15.739Z,16.50
2018-11-23T19:41:18.246Z,15.40
2018-11-23T19:46:20.686Z,15.28
2018-11-23T19:51:24.728Z,15.13
2018-11-23T19:56:27.139Z,14.25
2018-11-23T20:01:29.625Z,15.95
2018-11-23T20:06:32.076Z,17.35
2018-11-23T20:11:34.678Z,15.18
2018-11-23T20:16:37.072Z,15.65
2018-11-23T20:21:39.536Z,17.67
2018-11-23T20:26:42.004Z,16.15
2018-11-23T20:31:44.449Z,17.05
2018-11-23T20:36:46.912Z,17.55
2018-11-23T20:41:49.459Z,16.15
2018-11-23T20:46:52.010Z,17.23
2018-11-23T20:51:54.445Z,16.80
2018-11-23T20:56:56.929Z,17.27
2018-11-23T21:01:59.379Z,18.25
2018-11-23T21:07:01.940Z,16.75
2018-11-23T21:12:04.692Z,17.17
2018-11-23T21:17:07.466Z,17.10
2018-11-23T21:22:09.985Z,16.37
2018-11-23T21:27:12.485Z,17.00
2018-11-23T21:32:15.234Z,14.87
2018-11-23T21:37:17.630Z,15.08
2018-11-23T21:42:20.122Z,15.55
2018-11-23T21:47:22.629Z,14.95
2018-11-23T21:52:25.225Z,15.40
2018-11-23T21:57:27.660Z,15.05
2018-11-23T22:02:30.162Z,22.10
2018-11-23T22:07:32.633Z,14.58
2018-11-23T22:12:35.238Z,13.98
2018-11-23T22:17:37.898Z,16.48
2018-11-23T22:22:40.421Z,15.58
2018-11-23T22:27:43.234Z,13.93
2018-11-23T22:32:45.685Z,15.23
2018-11-23T22:37:48.173Z,13.88
2018-11-23T22:42:52.645Z,15.65
2018-11-23T22:47:56.448Z,16.17
2018-11-23T22:52:58.902Z,14.53
2018-11-23T22:58:01.314Z,16.45
2018-11-23T23:03:05.493Z,16.32
2018-11-23T23:08:09.028Z,16.05
2018-11-23T23:13:13.601Z,15.60
2018-11-23T23:18:16.600Z,15.45
2018-11-23T23:23:21.215Z,17.02
2018-11-23T23:28:25.557Z,18.00
2018-11-23T23:33:30.021Z,17.48
2018-11-23T23:38:34.162Z,17.00
2018-11-23T23:43:37.697Z,16.80
2018-11-23T23:48:42.392Z,17.60
2018-11-23T23:53:45.013Z,17.42
2018-11-23T23:58:47.457Z,18.75
